createdAt,value
2022-12-16T00:01:26.744Z,80.03
2022-12-16T00:03:57.748Z,93.33
2022-12-16T00:06:29.845Z,82.83
2022-12-16T00:08:57.167Z,88.50
2022-12-16T00:11:24.363Z,88.10
2022-12-16T00:13:52.000Z,87.80
2022-12-16T00:16:21.244Z,93.17
2022-12-16T00:18:49.154Z,93.60
2022-12-16T00:21:18.548Z,87.13
2022-12-16T00:23:46.261Z,62.43
2022-12-16T00:26:14.230Z,100.87
2022-12-16T00:28:43.706Z,83.17
2022-12-16T00:31:10.944Z,81.83
2022-12-16T00:33:38.619Z,95.47
2022-12-16T00:36:06.136Z,90.87
2022-12-16T00:38:34.000Z,90.13
2022-12-16T00:41:02.360Z,86.93
2022-12-16T00:43:29.748Z,96.10
2022-12-16T00:45:57.012Z,90.50
2022-12-16T00:48:25.463Z,85.87
2022-12-16T00:50:55.614Z,83.87
2022-12-16T00:53:25.329Z,93.33
2022-12-16T00:56:05.419Z,90.70
2022-12-16T00:58:33.403Z,68.40
2022-12-16T01:01:01.397Z,90.47
2022-12-16T01:03:29.331Z,88.67
2022-12-16T01:05:56.632Z,72.50
2022-12-16T01:08:24.200Z,60.70
2022-12-16T01:10:57.383Z,86.03
2022-12-16T01:13:26.227Z,89.63
2022-12-16T01:15:53.641Z,93.53
2022-12-16T01:18:21.760Z,89.97
2022-12-16T01:20:48.750Z,102.17
2022-12-16T01:23:16.066Z,96.30
2022-12-16T01:25:43.037Z,101.03
2022-12-16T01:28:10.489Z,96.93
2022-12-16T01:30:37.452Z,88.27
2022-12-16T01:33:04.919Z,97.73
2022-12-16T01:38:19.127Z,95.83
2022-12-16T01:40:46.048Z,98.70
2022-12-16T01:43:15.375Z,95.87
2022-12-16T01:45:42.875Z,104.90
2022-12-16T01:48:38.814Z,91.27
2022-12-16T01:51:33.095Z,72.67
2022-12-16T01:54:19.296Z,100.03
2022-12-16T01:56:53.980Z,94.73
2022-12-16T01:59:27.628Z,86.23
2022-12-16T02:01:55.412Z,91.25
2022-12-16T02:04:22.732Z,86.35
2022-12-16T02:06:50.077Z,89.63
2022-12-16T02:09:18.397Z,97.00
2022-12-16T02:12:19.596Z,98.50
2022-12-16T02:15:20.226Z,102.23
2022-12-16T02:18:22.655Z,86.20
2022-12-16T02:21:15.654Z,99.95
2022-12-16T02:24:06.917Z,93.85
2022-12-16T02:26:59.229Z,97.33
2022-12-16T02:30:06.497Z,104.13
2022-12-16T02:32:53.283Z,106.00
2022-12-16T02:35:54.280Z,106.40
2022-12-16T02:38:40.187Z,100.37
2022-12-16T02:41:33.663Z,97.03
2022-12-16T02:44:07.073Z,98.07
2022-12-16T02:46:44.293Z,96.77
2022-12-16T02:49:14.478Z,96.83
2022-12-16T02:51:41.979Z,97.13
2022-12-16T02:54:12.137Z,83.63
2022-12-16T02:56:59.560Z,93.70
2022-12-16T03:00:07.944Z,94.33
2022-12-16T03:03:11.182Z,90.47
2022-12-16T03:05:49.161Z,88.33
2022-12-16T03:08:26.581Z,83.80
2022-12-16T03:11:01.360Z,93.63
2022-12-16T03:13:36.680Z,74.53
2022-12-16T03:16:09.232Z,81.13
2022-12-16T03:18:42.358Z,76.80
2022-12-16T03:21:11.558Z,85.18
2022-12-16T03:23:52.158Z,80.35
2022-12-16T03:26:28.134Z,81.70
2022-12-16T03:29:24.324Z,76.32
2022-12-16T03:31:57.571Z,77.00
2022-12-16T03:34:39.216Z,83.27
2022-12-16T03:37:11.965Z,86.97
2022-12-16T03:42:16.364Z,80.50
2022-12-16T03:44:46.347Z,82.80
2022-12-16T03:47:17.129Z,76.97
2022-12-16T03:49:48.740Z,77.23
2022-12-16T03:52:15.921Z,74.30
2022-12-16T03:54:42.904Z,73.32
2022-12-16T03:57:15.052Z,76.65
2022-12-16T04:02:10.430Z,111.63
2022-12-16T04:04:37.732Z,76.40
2022-12-16T04:07:20.755Z,92.10
2022-12-16T04:09:52.614Z,71.18
2022-12-16T04:12:39.823Z,69.18
2022-12-16T04:15:40.720Z,66.20
2022-12-16T04:18:35.271Z,74.72
2022-12-16T04:21:22.856Z,105.00
2022-12-16T04:24:23.533Z,91.40
2022-12-16T04:27:15.057Z,102.93
2022-12-16T04:30:02.542Z,111.80
2022-12-16T04:32:50.643Z,162.60
2022-12-16T04:35:36.588Z,78.45
2022-12-16T04:38:22.551Z,67.47
2022-12-16T04:41:08.623Z,75.25
2022-12-16T04:43:54.607Z,75.63
2022-12-16T04:46:40.544Z,74.75
2022-12-16T04:49:26.612Z,70.35
2022-12-16T04:52:12.572Z,78.35
2022-12-16T04:54:58.212Z,76.18
2022-12-16T04:57:44.181Z,75.93
2022-12-16T05:00:30.872Z,68.10
2022-12-16T05:03:16.911Z,76.00
2022-12-16T05:06:02.804Z,73.63
2022-12-16T05:08:49.061Z,75.43
2022-12-16T05:11:35.169Z,75.07
2022-12-16T05:14:21.423Z,68.45
2022-12-16T05:17:06.989Z,68.28
2022-12-16T05:19:53.311Z,69.20
2022-12-16T05:22:38.996Z,74.22
2022-12-16T05:25:26.127Z,60.13
2022-12-16T05:28:12.887Z,68.13
2022-12-16T05:30:59.084Z,72.20
2022-12-16T05:33:45.092Z,61.33
2022-12-16T05:36:31.356Z,67.57
2022-12-16T05:39:17.423Z,62.38
2022-12-16T05:42:03.544Z,57.03
2022-12-16T05:44:49.406Z,56.33
2022-12-16T05:47:35.494Z,63.08
2022-12-16T05:50:21.712Z,57.78
2022-12-16T05:53:14.204Z,58.88
2022-12-16T05:56:02.036Z,57.97
2022-12-16T05:58:48.885Z,53.20
2022-12-16T06:01:34.735Z,52.72
2022-12-16T06:04:20.791Z,56.65
2022-12-16T06:07:06.795Z,52.05
2022-12-16T06:09:56.579Z,58.42
2022-12-16T06:12:43.041Z,47.20
2022-12-16T06:15:29.351Z,54.65
2022-12-16T06:18:15.373Z,58.05
2022-12-16T06:21:02.032Z,54.17
2022-12-16T06:23:47.715Z,55.35
2022-12-16T06:26:34.298Z,54.45
2022-12-16T06:29:20.418Z,54.08
2022-12-16T06:32:06.213Z,59.63
2022-12-16T06:34:51.981Z,57.27
2022-12-16T06:37:37.780Z,57.23
2022-12-16T06:40:24.193Z,54.43
2022-12-16T06:43:10.164Z,53.95
2022-12-16T06:45:55.749Z,55.92
2022-12-16T06:48:41.938Z,50.67
2022-12-16T06:51:28.011Z,48.08
2022-12-16T06:54:13.944Z,47.15
2022-12-16T06:56:59.769Z,52.90
2022-12-16T06:59:45.780Z,56.30
2022-12-16T07:02:31.543Z,53.90
2022-12-16T07:05:17.886Z,52.65
2022-12-16T07:08:08.998Z,47.63
2022-12-16T07:11:03.403Z,49.13
2022-12-16T07:13:49.245Z,53.53
2022-12-16T07:16:35.154Z,51.88
2022-12-16T07:19:22.779Z,51.33
2022-12-16T07:22:08.568Z,50.93
2022-12-16T07:24:54.587Z,52.03
2022-12-16T07:27:40.951Z,52.58
2022-12-16T07:30:27.621Z,51.65
2022-12-16T07:33:13.516Z,56.13
2022-12-16T07:36:01.853Z,55.75
2022-12-16T07:38:48.104Z,50.40
2022-12-16T07:41:33.899Z,52.33
2022-12-16T07:44:23.313Z,53.70
2022-12-16T07:47:08.784Z,49.90
2022-12-16T07:49:55.493Z,36.28
2022-12-16T07:52:42.100Z,42.40
2022-12-16T07:55:28.011Z,43.17
2022-12-16T07:58:13.600Z,43.43
2022-12-16T08:00:59.864Z,44.78
2022-12-16T08:03:46.798Z,43.05
2022-12-16T08:06:35.991Z,41.05
2022-12-16T08:12:12.063Z,41.47
2022-12-16T08:14:57.593Z,41.75
2022-12-16T08:17:43.697Z,30.08
2022-12-16T08:20:29.327Z,40.73
2022-12-16T08:23:15.468Z,41.10
2022-12-16T08:26:03.271Z,44.77
2022-12-16T08:28:49.633Z,43.45
2022-12-16T08:31:35.230Z,40.58
2022-12-16T08:34:21.206Z,43.83
2022-12-16T08:37:06.727Z,42.55
2022-12-16T08:40:17.721Z,40.40
2022-12-16T08:42:58.867Z,32.40
2022-12-16T08:45:45.698Z,33.65
2022-12-16T08:48:31.784Z,34.88
2022-12-16T08:51:22.523Z,31.47
2022-12-16T08:54:08.792Z,34.42
2022-12-16T08:56:55.340Z,30.42
2022-12-16T08:59:41.546Z,30.52
2022-12-16T09:02:31.044Z,30.50
2022-12-16T09:05:24.725Z,33.15
2022-12-16T09:08:10.949Z,31.17
2022-12-16T09:10:56.670Z,31.20
2022-12-16T09:13:43.074Z,30.95
2022-12-16T09:16:28.887Z,28.15
2022-12-16T09:19:14.938Z,26.75
2022-12-16T09:22:00.570Z,21.80
2022-12-16T09:24:46.479Z,14.32
2022-12-16T09:27:32.145Z,45.33
2022-12-16T09:30:18.604Z,37.78
2022-12-16T09:33:04.652Z,16.58
2022-12-16T09:35:50.954Z,13.13
2022-12-16T09:38:36.729Z,16.67
2022-12-16T09:41:47.363Z,11.32
2022-12-16T09:44:47.620Z,13.88
2022-12-16T09:48:07.687Z,13.45
2022-12-16T09:51:00.449Z,11.43
2022-12-16T09:53:53.315Z,12.25
2022-12-16T09:56:51.428Z,12.82
2022-12-16T09:59:57.348Z,12.40
2022-12-16T10:02:44.743Z,13.55
2022-12-16T10:05:34.329Z,12.05
2022-12-16T10:08:40.657Z,11.15
2022-12-16T10:11:44.724Z,11.38
2022-12-16T10:14:45.195Z,13.82
2022-12-16T10:17:37.176Z,10.82
2022-12-16T10:20:33.624Z,12.60
2022-12-16T10:23:51.748Z,10.70
2022-12-16T10:26:51.840Z,15.02
2022-12-16T10:29:46.228Z,12.45
2022-12-16T10:32:59.590Z,14.85
2022-12-16T10:35:56.650Z,15.93
2022-12-16T10:39:01.992Z,14.40
2022-12-16T10:41:56.616Z,14.57
2022-12-16T10:45:11.024Z,13.68
2022-12-16T10:47:58.952Z,14.35
2022-12-16T10:50:44.920Z,16.38
2022-12-16T10:53:54.280Z,14.70
2022-12-16T10:57:19.700Z,13.82
2022-12-16T11:00:05.920Z,14.93
2022-12-16T11:02:51.779Z,16.33
2022-12-16T11:05:44.788Z,15.50
2022-12-16T11:08:52.580Z,13.55
2022-12-16T11:11:48.372Z,15.57
2022-12-16T11:15:12.611Z,15.18
2022-12-16T11:17:57.459Z,13.88
2022-12-16T11:20:45.232Z,16.48
2022-12-16T11:23:55.907Z,13.23
2022-12-16T11:26:41.845Z,14.32
2022-12-16T11:29:30.666Z,15.30
2022-12-16T11:32:21.701Z,14.88
2022-12-16T11:40:38.333Z,13.32
2022-12-16T11:43:38.897Z,13.52
2022-12-16T11:46:44.292Z,13.38
2022-12-16T11:49:51.320Z,13.73
2022-12-16T11:52:42.171Z,12.60
2022-12-16T12:22:04.482Z,13.93
2022-12-16T12:30:57.046Z,13.20
2022-12-16T13:01:23.200Z,12.60
2022-12-16T13:09:27.605Z,13.02
2022-12-16T13:12:56.880Z,11.20
2022-12-16T13:15:56.490Z,13.57
2022-12-16T13:18:50.411Z,11.88
2022-12-16T13:21:56.363Z,12.02
2022-12-16T13:24:45.695Z,14.23
2022-12-16T13:27:35.116Z,12.35
2022-12-16T13:30:34.586Z,11.73
2022-12-16T13:33:51.039Z,12.35
2022-12-16T13:36:37.872Z,12.75
2022-12-16T13:39:48.776Z,14.25
2022-12-16T13:43:09.880Z,14.52
2022-12-16T13:46:23.306Z,12.55
2022-12-16T13:49:09.275Z,14.00
2022-12-16T13:51:57.999Z,14.82
2022-12-16T13:54:54.051Z,12.93
2022-12-16T13:57:43.692Z,13.45
2022-12-16T14:00:41.512Z,14.48
2022-12-16T14:04:09.807Z,17.52
2022-12-16T14:06:58.325Z,18.73
2022-12-16T14:10:00.181Z,18.30
2022-12-16T14:13:03.287Z,17.55
2022-12-16T14:19:45.500Z,19.27
2022-12-16T14:23:17.934Z,18.42
2022-12-16T14:26:17.908Z,15.85
2022-12-16T14:29:06.760Z,17.70
2022-12-16T14:31:59.938Z,15.18
2022-12-16T14:34:55.260Z,16.38
2022-12-16T14:37:56.723Z,14.82
2022-12-16T14:40:51.664Z,15.50
2022-12-16T14:43:41.064Z,17.30
2022-12-16T14:46:46.292Z,15.98
2022-12-16T14:49:48.338Z,16.70
2022-12-16T14:52:45.857Z,17.10
2022-12-16T14:55:37.683Z,16.83
2022-12-16T14:58:31.588Z,17.33
2022-12-16T15:01:23.877Z,15.98
2022-12-16T15:04:10.500Z,15.70
2022-12-16T15:07:02.540Z,18.17
2022-12-16T15:10:06.587Z,18.98
2022-12-16T15:13:00.147Z,15.93
2022-12-16T15:15:57.861Z,18.27
2022-12-16T15:19:00.807Z,17.02
2022-12-16T15:21:47.056Z,17.05
2022-12-16T15:24:41.594Z,16.27
2022-12-16T15:27:39.554Z,17.52
2022-12-16T15:30:51.808Z,18.80
2022-12-16T15:33:47.342Z,19.60
2022-12-16T15:36:50.307Z,18.88
2022-12-16T15:39:48.432Z,17.45
2022-12-16T15:42:44.629Z,20.13
2022-12-16T15:45:48.630Z,19.55
2022-12-16T15:48:51.097Z,21.45
2022-12-16T15:52:10.907Z,21.55
2022-12-16T15:55:12.167Z,19.38
2022-12-16T15:57:58.732Z,23.73
2022-12-16T16:00:49.147Z,20.00
2022-12-16T16:03:49.511Z,20.52
2022-12-16T16:06:45.436Z,22.20
2022-12-16T16:09:47.096Z,22.20
2022-12-16T16:12:36.607Z,21.63
2022-12-16T16:15:25.212Z,27.45
2022-12-16T16:18:21.741Z,24.67
2022-12-16T16:21:08.988Z,27.45
2022-12-16T16:23:55.123Z,24.50
2022-12-16T16:26:46.366Z,25.80
2022-12-16T16:29:32.810Z,25.83
2022-12-16T16:32:20.244Z,28.48
2022-12-16T16:35:06.054Z,26.00
2022-12-16T16:37:52.145Z,24.15
2022-12-16T16:40:55.858Z,24.42
2022-12-16T16:43:43.922Z,23.10
2022-12-16T16:46:51.492Z,27.48
2022-12-16T16:49:50.023Z,28.63
2022-12-16T16:52:40.289Z,27.55
2022-12-16T16:55:33.913Z,27.23
2022-12-16T16:58:19.588Z,26.60
2022-12-16T17:01:05.761Z,25.60
2022-12-16T17:03:51.695Z,30.08
2022-12-16T17:06:38.060Z,28.65
2022-12-16T17:09:23.756Z,27.23
2022-12-16T17:12:09.647Z,27.08
2022-12-16T17:14:55.179Z,31.10
2022-12-16T17:17:40.856Z,30.42
2022-12-16T17:20:33.525Z,29.45
2022-12-16T17:23:20.011Z,31.10
2022-12-16T17:26:05.784Z,30.10
2022-12-16T17:28:51.714Z,30.33
2022-12-16T17:31:37.713Z,33.58
2022-12-16T17:34:23.634Z,34.92
2022-12-16T17:37:09.019Z,30.17
2022-12-16T17:39:55.096Z,26.83
2022-12-16T17:42:46.174Z,28.80
2022-12-16T17:45:32.365Z,30.08
2022-12-16T17:48:18.181Z,30.60
2022-12-16T17:51:04.218Z,29.52
2022-12-16T17:53:54.518Z,30.92
2022-12-16T17:56:43.196Z,31.92
2022-12-16T17:59:29.389Z,31.60
2022-12-16T18:02:15.584Z,29.50
2022-12-16T18:05:01.243Z,26.20
2022-12-16T18:07:47.848Z,30.70
2022-12-16T18:10:33.645Z,30.85
2022-12-16T18:13:19.847Z,30.13
2022-12-16T18:16:12.309Z,31.45
2022-12-16T18:18:58.351Z,27.95
2022-12-16T18:21:44.045Z,28.95
2022-12-16T18:24:30.425Z,33.92
2022-12-16T18:27:16.297Z,32.58
2022-12-16T18:30:02.224Z,32.38
2022-12-16T18:32:48.271Z,32.30
2022-12-16T18:35:34.379Z,34.78
2022-12-16T18:38:20.134Z,31.33
2022-12-16T18:41:06.304Z,37.28
2022-12-16T18:43:51.767Z,34.42
2022-12-16T18:46:37.568Z,36.25
2022-12-16T18:49:23.248Z,30.73
2022-12-16T18:52:08.968Z,41.63
2022-12-16T18:54:54.846Z,36.10
2022-12-16T18:57:40.608Z,38.75
2022-12-16T19:00:27.365Z,34.95
2022-12-16T19:03:13.148Z,39.17
2022-12-16T19:05:58.607Z,37.88
2022-12-16T19:08:44.413Z,37.92
2022-12-16T19:11:30.044Z,35.85
2022-12-16T19:14:16.152Z,39.92
2022-12-16T19:17:02.088Z,41.92
2022-12-16T19:19:48.092Z,43.55
2022-12-16T19:22:33.954Z,38.42
2022-12-16T19:25:20.205Z,38.10
2022-12-16T19:28:05.739Z,35.63
2022-12-16T19:30:51.774Z,38.10
2022-12-16T19:33:37.425Z,36.00
2022-12-16T19:36:23.508Z,37.28
2022-12-16T19:39:09.402Z,36.55
2022-12-16T19:41:56.949Z,42.47
2022-12-16T19:44:42.485Z,38.55
2022-12-16T19:47:28.700Z,37.65
2022-12-16T19:50:14.127Z,36.30
2022-12-16T19:52:59.882Z,40.00
2022-12-16T19:55:45.435Z,40.50
2022-12-16T19:58:31.551Z,38.80
2022-12-16T20:01:17.418Z,41.22
2022-12-16T20:04:04.033Z,36.05
2022-12-16T20:06:49.853Z,39.22
2022-12-16T20:09:36.170Z,37.28
2022-12-16T20:12:22.081Z,37.15
2022-12-16T20:15:08.108Z,42.30
2022-12-16T20:17:56.142Z,38.40
2022-12-16T20:20:42.079Z,38.85
2022-12-16T20:23:27.847Z,39.35
2022-12-16T20:26:19.801Z,36.40
2022-12-16T20:29:05.849Z,35.25
2022-12-16T20:31:52.451Z,40.72
2022-12-16T20:34:41.763Z,39.35
2022-12-16T20:37:27.907Z,41.78
2022-12-16T20:40:13.654Z,38.08
2022-12-16T20:42:59.812Z,34.88
2022-12-16T20:45:45.592Z,39.22
2022-12-16T20:48:35.517Z,38.50
2022-12-16T20:51:26.933Z,39.60
2022-12-16T20:54:13.483Z,40.95
2022-12-16T20:56:59.813Z,43.15
2022-12-16T20:59:45.812Z,39.53
2022-12-16T21:02:34.166Z,35.53
2022-12-16T21:05:21.848Z,38.63
2022-12-16T21:08:07.845Z,41.28
2022-12-16T21:10:56.015Z,42.63
2022-12-16T21:13:42.895Z,41.20
2022-12-16T21:16:29.600Z,41.45
2022-12-16T21:19:15.405Z,41.97
2022-12-16T21:22:01.758Z,40.60
2022-12-16T21:24:47.251Z,43.28
2022-12-16T21:27:33.082Z,40.88
2022-12-16T21:30:18.832Z,41.92
2022-12-16T21:33:04.540Z,44.50
2022-12-16T21:35:50.432Z,40.95
2022-12-16T21:38:37.480Z,41.83
2022-12-16T21:41:23.195Z,40.67
2022-12-16T21:44:12.972Z,42.03
2022-12-16T21:46:59.011Z,40.92
2022-12-16T21:49:44.909Z,41.40
2022-12-16T21:52:30.668Z,43.90
2022-12-16T21:55:16.629Z,41.13
2022-12-16T21:58:02.423Z,47.22
2022-12-16T22:00:50.338Z,40.78
2022-12-16T22:03:39.315Z,40.47
2022-12-16T22:06:25.771Z,44.53
2022-12-16T22:09:11.753Z,46.72
2022-12-16T22:11:57.989Z,40.55
2022-12-16T22:14:43.659Z,41.28
2022-12-16T22:17:29.994Z,38.33
2022-12-16T22:20:15.683Z,43.75
2022-12-16T22:23:01.655Z,40.47
2022-12-16T22:25:47.431Z,39.75
2022-12-16T22:28:33.143Z,41.50
2022-12-16T22:31:18.855Z,42.88
2022-12-16T22:34:08.812Z,41.00
2022-12-16T22:36:57.363Z,46.58
2022-12-16T22:39:47.302Z,51.33
2022-12-16T22:42:33.160Z,51.88
2022-12-16T22:45:19.798Z,43.90
2022-12-16T22:48:05.211Z,43.90
2022-12-16T22:50:51.172Z,47.05
2022-12-16T22:53:37.427Z,44.10
2022-12-16T22:56:23.383Z,41.42
2022-12-16T22:59:09.241Z,43.05
2022-12-16T23:01:55.063Z,41.00
2022-12-16T23:04:42.879Z,45.03
2022-12-16T23:07:28.961Z,48.28
2022-12-16T23:10:14.556Z,38.83
2022-12-16T23:13:01.102Z,42.85
2022-12-16T23:15:47.038Z,42.22
2022-12-16T23:18:32.843Z,38.00
2022-12-16T23:21:18.741Z,35.95
2022-12-16T23:24:04.571Z,36.78
2022-12-16T23:26:50.316Z,33.55
2022-12-16T23:29:36.472Z,35.97
2022-12-16T23:32:22.066Z,36.50
2022-12-16T23:35:07.925Z,37.35
2022-12-16T23:37:53.572Z,34.22
2022-12-16T23:40:42.199Z,34.97
2022-12-16T23:43:27.848Z,29.90
2022-12-16T23:46:30.939Z,34.70
2022-12-16T23:49:16.891Z,33.92
2022-12-16T23:52:02.636Z,34.17
2022-12-16T23:54:48.135Z,33.47
2022-12-16T23:57:34.237Z,30.63
